createdAt,value
2023-04-04T00:24:13.855Z,70.10
2023-04-04T00:29:16.907Z,70.20
2023-04-04T00:34:19.818Z,70.50
2023-04-04T00:39:23.933Z,70.40
2023-04-04T00:44:26.538Z,70.20
2023-04-04T00:49:28.874Z,70.10
2023-04-04T00:54:32.873Z,69.70
2023-04-04T00:59:38.857Z,70.00
2023-04-04T01:04:41.607Z,69.80
2023-04-04T01:09:45.885Z,69.50
2023-04-04T01:14:51.073Z,69.10
2023-04-04T01:20:05.102Z,68.80
2023-04-04T01:25:18.756Z,68.90
2023-04-04T01:30:36.164Z,69.90
2023-04-04T01:35:48.995Z,70.30
2023-04-04T01:40:57.663Z,70.40
2023-04-04T01:46:03.392Z,71.20
2023-04-04T01:51:06.453Z,71.10
2023-04-04T01:56:09.610Z,70.30
2023-04-04T02:01:17.244Z,71.40
2023-04-04T02:06:19.766Z,70.40
2023-04-04T02:11:22.353Z,69.90
2023-04-04T02:16:26.251Z,69.50
2023-04-04T02:21:31.791Z,68.90
2023-04-04T02:26:34.381Z,68.30
2023-04-04T02:31:38.718Z,68.60
2023-04-04T02:36:43.937Z,69.10
2023-04-04T02:41:46.916Z,69.30
2023-04-04T02:46:54.193Z,69.60
2023-04-04T02:52:03.504Z,70.10
2023-04-04T02:57:11.188Z,69.20
2023-04-04T03:02:15.472Z,68.70
2023-04-04T03:07:18.113Z,67.90
2023-04-04T03:12:21.088Z,67.60
2023-04-04T03:17:26.815Z,67.80
2023-04-04T03:22:29.297Z,67.70
2023-04-04T03:27:32.167Z,67.60
2023-04-04T03:32:36.538Z,67.90
2023-04-04T03:37:39.444Z,68.50
2023-04-04T03:42:42.647Z,68.00
2023-04-04T03:47:48.494Z,67.70
2023-04-04T03:52:51.414Z,67.50
2023-04-04T03:57:54.722Z,67.80
2023-04-04T04:02:58.931Z,67.30
2023-04-04T04:08:03.208Z,67.30
2023-04-04T04:13:05.866Z,67.90
2023-04-04T04:18:10.724Z,67.10
2023-04-04T04:23:13.332Z,66.70
2023-04-04T04:28:16.410Z,67.40
2023-04-04T04:33:20.338Z,68.50
2023-04-04T04:38:34.013Z,67.30
2023-04-04T04:43:38.392Z,67.10
2023-04-04T04:48:42.470Z,65.40
2023-04-04T04:53:46.093Z,65.20
2023-04-04T04:58:49.207Z,65.20
2023-04-04T05:03:59.925Z,64.50
2023-04-04T05:09:12.416Z,63.00
2023-04-04T05:14:15.262Z,62.30
2023-04-04T05:19:28.952Z,61.30
2023-04-04T05:24:34.030Z,61.60
2023-04-04T05:29:37.942Z,61.00
2023-04-04T05:34:42.195Z,61.40
2023-04-04T05:39:49.353Z,63.10
2023-04-04T05:44:56.645Z,61.90
2023-04-04T05:50:05.439Z,62.40
2023-04-04T05:55:12.795Z,62.40
2023-04-04T06:00:20.361Z,61.70
2023-04-04T06:05:37.065Z,62.00
2023-04-04T06:10:44.352Z,62.50
2023-04-04T06:15:47.975Z,61.90
2023-04-04T06:20:52.635Z,62.30
2023-04-04T06:25:55.748Z,62.30
2023-04-04T06:31:00.467Z,62.40
2023-04-04T06:36:08.969Z,60.70
2023-04-04T06:41:11.862Z,60.90
2023-04-04T06:46:16.419Z,61.10
2023-04-04T06:51:21.768Z,59.50
2023-04-04T06:56:25.731Z,59.90
2023-04-04T07:01:29.218Z,59.60
2023-04-04T07:06:59.965Z,59.60
2023-04-04T07:12:04.036Z,58.60
2023-04-04T07:17:17.191Z,57.50
2023-04-04T07:22:31.067Z,58.10
2023-04-04T07:27:34.845Z,58.20
2023-04-04T07:32:39.344Z,56.20
2023-04-04T07:37:45.392Z,55.60
2023-04-04T07:43:01.085Z,56.10
2023-04-04T07:48:04.682Z,55.50
2023-04-04T07:53:09.113Z,54.40
2023-04-04T07:58:12.370Z,54.80
2023-04-04T08:03:15.993Z,53.40
2023-04-04T08:08:20.496Z,57.70
2023-04-04T08:13:23.256Z,57.60
2023-04-04T08:18:27.878Z,58.30
2023-04-04T08:23:32.050Z,57.60
2023-04-04T08:28:35.259Z,57.80
2023-04-04T08:33:47.478Z,57.70
2023-04-04T08:38:52.688Z,58.50
2023-04-04T08:44:01.156Z,57.30
2023-04-04T08:49:04.626Z,56.10
2023-04-04T08:54:15.221Z,55.40
2023-04-04T08:59:28.112Z,54.40
2023-04-04T09:04:37.491Z,54.80
2023-04-04T09:09:47.429Z,52.10
2023-04-04T09:14:59.561Z,52.00
2023-04-04T09:20:03.403Z,52.10
2023-04-04T09:25:20.927Z,52.10
2023-04-04T09:30:27.515Z,52.70
2023-04-04T09:35:47.081Z,51.30
2023-04-04T09:40:53.597Z,50.60
2023-04-04T09:46:01.972Z,52.20
2023-04-04T09:51:07.444Z,53.00
2023-04-04T09:56:12.343Z,52.80
2023-04-04T10:01:15.915Z,51.60
2023-04-04T10:06:26.969Z,52.00
2023-04-04T10:11:34.415Z,51.10
2023-04-04T10:16:37.472Z,49.30
2023-04-04T10:21:42.003Z,50.90
2023-04-04T10:26:46.701Z,51.90
2023-04-04T10:31:59.354Z,52.80
2023-04-04T10:37:13.100Z,57.80
2023-04-04T10:42:22.180Z,50.60
2023-04-04T10:47:27.035Z,46.30
2023-04-04T10:52:31.837Z,43.80
2023-04-04T10:57:42.222Z,43.10
2023-04-04T11:02:47.826Z,46.20
2023-04-04T11:13:15.208Z,48.00
2023-04-04T11:18:32.107Z,47.80
2023-04-04T11:24:14.500Z,47.80
2023-04-04T11:29:51.316Z,48.20
2023-04-04T11:34:56.984Z,45.80
2023-04-04T11:40:14.449Z,46.80
2023-04-04T11:45:21.306Z,49.80
2023-04-04T11:50:24.944Z,49.00
2023-04-04T11:55:28.336Z,48.00
2023-04-04T12:00:36.966Z,46.00
2023-04-04T12:05:45.051Z,47.20
2023-04-04T12:10:54.328Z,48.20
2023-04-04T12:15:59.851Z,48.20
2023-04-04T12:21:07.755Z,48.50
2023-04-04T12:26:10.674Z,48.50
2023-04-04T12:31:16.254Z,47.30
2023-04-04T12:36:20.266Z,47.80
2023-04-04T12:41:23.942Z,47.10
2023-04-04T12:46:34.934Z,49.80
2023-04-04T12:51:38.714Z,49.60
2023-04-04T12:56:41.722Z,48.10
2023-04-04T13:01:47.026Z,46.90
2023-04-04T13:06:50.679Z,47.00
2023-04-04T13:11:59.386Z,47.50
2023-04-04T13:17:06.198Z,48.00
2023-04-04T13:22:09.713Z,48.10
2023-04-04T13:27:12.571Z,48.30
2023-04-04T13:32:16.443Z,46.70
2023-04-04T13:37:19.045Z,48.00
2023-04-04T13:42:21.602Z,47.10
2023-04-04T13:47:28.928Z,46.00
2023-04-04T13:52:35.660Z,45.90
2023-04-04T13:57:38.474Z,46.80
2023-04-04T14:02:42.545Z,46.80
2023-04-04T14:07:45.536Z,46.50
2023-04-04T14:12:48.174Z,47.50
2023-04-04T14:17:52.312Z,46.70
2023-04-04T14:22:54.992Z,45.90
2023-04-04T14:27:57.630Z,46.00
2023-04-04T14:33:01.767Z,46.80
2023-04-04T14:38:07.473Z,48.00
2023-04-04T14:43:10.327Z,47.90
2023-04-04T14:48:14.647Z,48.50
2023-04-04T14:53:20.186Z,48.90
2023-04-04T14:58:22.912Z,48.20
2023-04-04T15:03:28.274Z,47.80
2023-04-04T15:08:31.182Z,48.50
2023-04-04T15:13:37.199Z,48.40
2023-04-04T15:18:41.223Z,48.40
2023-04-04T15:23:43.781Z,49.20
2023-04-04T15:28:46.492Z,49.00
2023-04-04T15:33:50.509Z,49.00
2023-04-04T15:38:56.074Z,49.50
2023-04-04T15:43:58.561Z,49.60
2023-04-04T15:49:03.192Z,49.70
2023-04-04T15:54:05.849Z,49.50
2023-04-04T15:59:08.451Z,49.10
2023-04-04T16:04:15.118Z,49.00
2023-04-04T16:09:17.600Z,49.30
2023-04-04T16:14:20.267Z,49.60
2023-04-04T16:19:24.216Z,49.70
2023-04-04T16:24:27.499Z,50.40
2023-04-04T16:29:30.120Z,50.30
2023-04-04T16:34:34.522Z,50.70
2023-04-04T16:39:38.334Z,50.80
2023-04-04T16:44:40.960Z,51.60
2023-04-04T16:49:45.167Z,51.50
2023-04-04T16:54:47.668Z,51.60
2023-04-04T16:59:50.168Z,51.90
2023-04-04T17:04:54.057Z,52.10
2023-04-04T17:09:56.619Z,52.20
2023-04-04T17:15:02.212Z,52.10
2023-04-04T17:20:07.889Z,52.40
2023-04-04T17:25:10.774Z,53.20
2023-04-04T17:30:14.946Z,53.60
2023-04-04T17:35:19.028Z,54.50
2023-04-04T17:40:24.528Z,54.60
2023-04-04T17:45:27.515Z,54.10
2023-04-04T17:50:31.840Z,53.80
2023-04-04T17:55:34.764Z,53.70
2023-04-04T18:00:37.347Z,53.70
2023-04-04T18:05:41.888Z,54.40
2023-04-04T18:10:46.402Z,54.00
2023-04-04T18:15:49.010Z,53.90
2023-04-04T18:20:53.663Z,54.30
2023-04-04T18:25:56.360Z,54.30
2023-04-04T18:30:59.677Z,54.00
2023-04-04T18:36:04.408Z,53.80
2023-04-04T18:41:08.218Z,54.10
2023-04-04T18:46:11.043Z,54.20
2023-04-04T18:51:15.167Z,54.30
2023-04-04T18:56:17.699Z,53.60
2023-04-04T19:01:20.784Z,52.80
2023-04-04T19:06:27.136Z,53.00
2023-04-04T19:11:34.950Z,53.30
2023-04-04T19:16:37.635Z,54.20
2023-04-04T19:21:41.951Z,55.40
2023-04-04T19:26:44.549Z,56.30
2023-04-04T19:31:47.559Z,57.30
2023-04-04T19:36:51.784Z,59.60
2023-04-04T19:41:54.477Z,58.80
2023-04-04T19:46:57.571Z,61.70
2023-04-04T19:52:03.260Z,62.90
2023-04-04T19:57:08.455Z,61.20
2023-04-04T20:02:50.348Z,60.60
2023-04-04T20:07:55.066Z,59.90
2023-04-04T20:12:57.610Z,59.70
2023-04-04T20:18:00.177Z,59.80
2023-04-04T20:23:09.803Z,59.50
2023-04-04T20:28:24.371Z,59.50
2023-04-04T20:33:35.991Z,59.30
2023-04-04T20:38:41.998Z,59.40
2023-04-04T20:43:52.465Z,59.70
2023-04-04T20:48:55.638Z,60.20
2023-04-04T20:54:02.744Z,60.90
2023-04-04T20:59:07.806Z,60.20
2023-04-04T21:04:25.942Z,60.30
2023-04-04T21:09:29.981Z,60.90
2023-04-04T21:14:35.723Z,60.60
2023-04-04T21:19:38.241Z,60.90
2023-04-04T21:24:42.914Z,61.30
2023-04-04T21:29:45.524Z,61.10
2023-04-04T21:34:47.966Z,60.80
2023-04-04T21:39:56.444Z,60.60
2023-04-04T21:44:58.957Z,61.00
2023-04-04T21:50:01.457Z,61.60
2023-04-04T21:55:06.132Z,61.70
2023-04-04T22:00:09.874Z,61.60
2023-04-04T22:05:12.382Z,63.50
2023-04-04T22:10:19.631Z,63.70
2023-04-04T22:15:22.114Z,64.60
2023-04-04T22:20:24.621Z,63.70
2023-04-04T22:25:28.654Z,63.30
2023-04-04T22:30:31.330Z,63.80
2023-04-04T22:35:34.019Z,63.80
2023-04-04T22:40:37.958Z,63.50
2023-04-04T22:45:40.500Z,63.90
2023-04-04T22:50:43.646Z,63.70
2023-04-04T22:55:47.441Z,63.60
2023-04-04T23:00:50.179Z,63.40
2023-04-04T23:05:52.586Z,63.80
2023-04-04T23:10:56.427Z,64.00
2023-04-04T23:15:59.074Z,64.30
2023-04-04T23:21:01.868Z,64.40
2023-04-04T23:26:05.811Z,64.20
2023-04-04T23:31:08.215Z,64.60
2023-04-04T23:36:10.888Z,64.70
2023-04-04T23:41:14.706Z,64.20
2023-04-04T23:46:17.433Z,64.20
2023-04-04T23:51:20.096Z,64.50
2023-04-04T23:56:24.126Z,64.60
